createdAt,value
2019-02-20T00:01:48.657Z,66.72
2019-02-20T00:04:19.060Z,67.43
2019-02-20T00:06:49.426Z,67.57
2019-02-20T00:09:19.814Z,67.23
2019-02-20T00:11:50.215Z,67.59
2019-02-20T00:14:23.301Z,67.77
2019-02-20T00:16:53.709Z,68.43
2019-02-20T00:19:24.116Z,69.13
2019-02-20T00:21:54.497Z,69.36
2019-02-20T00:24:24.971Z,69.69
2019-02-20T00:26:55.374Z,69.72
2019-02-20T00:29:25.776Z,70.11
2019-02-20T00:31:56.196Z,70.07
2019-02-20T00:34:26.580Z,69.61
2019-02-20T00:36:56.980Z,69.68
2019-02-20T00:39:30.051Z,69.61
2019-02-20T00:42:00.391Z,69.55
2019-02-20T00:44:32.357Z,70.28
2019-02-20T00:47:07.270Z,70.20
2019-02-20T00:49:39.102Z,70.59
2019-02-20T00:52:11.046Z,71.25
2019-02-20T00:54:41.447Z,71.57
2019-02-20T00:57:11.811Z,72.32
2019-02-20T00:59:42.220Z,72.75
2019-02-20T01:02:12.605Z,73.05
2019-02-20T01:04:43.005Z,73.64
2019-02-20T01:07:13.414Z,74.10
2019-02-20T01:09:43.788Z,74.54
2019-02-20T01:12:14.185Z,74.78
2019-02-20T01:14:44.567Z,75.10
2019-02-20T01:17:14.980Z,75.45
2019-02-20T01:19:45.409Z,75.61
2019-02-20T01:22:15.787Z,75.89
2019-02-20T01:24:46.168Z,76.16
2019-02-20T01:27:16.558Z,76.56
2019-02-20T01:29:46.986Z,77.42
2019-02-20T01:32:17.401Z,77.71
2019-02-20T01:34:47.789Z,77.78
2019-02-20T01:37:18.193Z,77.91
2019-02-20T01:39:49.565Z,78.80
2019-02-20T01:42:20.304Z,78.60
2019-02-20T01:44:50.663Z,78.90
2019-02-20T01:47:21.038Z,79.16
2019-02-20T01:49:51.423Z,79.04
2019-02-20T01:52:21.808Z,79.69
2019-02-20T01:54:52.215Z,79.95
2019-02-20T01:57:22.613Z,79.74
2019-02-20T01:59:52.994Z,79.73
2019-02-20T02:02:23.349Z,80.14
2019-02-20T02:04:53.742Z,80.09
2019-02-20T02:07:24.149Z,80.47
2019-02-20T02:09:54.553Z,80.15
2019-02-20T02:12:24.943Z,80.43
2019-02-20T02:14:55.359Z,80.34
2019-02-20T02:17:25.754Z,80.74
2019-02-20T02:19:56.144Z,80.91
2019-02-20T02:22:26.570Z,81.03
2019-02-20T02:24:56.997Z,81.12
2019-02-20T02:27:27.441Z,81.07
2019-02-20T02:29:57.867Z,81.35
2019-02-20T02:32:28.272Z,81.13
2019-02-20T02:35:00.259Z,81.42
2019-02-20T02:37:30.635Z,81.08
2019-02-20T02:40:01.009Z,80.95
2019-02-20T02:42:31.377Z,81.22
2019-02-20T02:45:01.818Z,81.07
2019-02-20T02:47:32.229Z,81.59
2019-02-20T02:50:02.625Z,82.00
2019-02-20T02:52:33.014Z,81.97
2019-02-20T02:55:03.397Z,82.17
2019-02-20T02:57:33.778Z,82.05
2019-02-20T03:00:05.590Z,82.18
2019-02-20T03:02:35.978Z,81.87
2019-02-20T03:05:07.622Z,82.14
2019-02-20T03:07:38.024Z,82.13
2019-02-20T03:10:08.709Z,82.19
2019-02-20T03:12:39.133Z,82.56
2019-02-20T03:15:10.117Z,83.00
2019-02-20T03:17:40.502Z,83.24
2019-02-20T03:20:10.941Z,83.23
2019-02-20T03:22:41.342Z,83.40
2019-02-20T03:25:11.749Z,83.41
2019-02-20T03:27:42.181Z,83.69
2019-02-20T03:30:15.090Z,83.28
2019-02-20T03:32:45.473Z,83.29
2019-02-20T03:35:15.848Z,83.33
2019-02-20T03:37:46.236Z,83.16
2019-02-20T03:40:16.650Z,83.11
2019-02-20T03:42:47.112Z,83.08
2019-02-20T03:45:17.522Z,83.00
2019-02-20T03:47:47.926Z,83.27
2019-02-20T03:50:18.299Z,83.29
2019-02-20T03:52:48.688Z,83.60
2019-02-20T03:55:19.104Z,83.05
2019-02-20T03:57:49.447Z,83.31
2019-02-20T04:00:19.864Z,83.10
2019-02-20T04:02:50.234Z,83.49
2019-02-20T04:05:20.649Z,83.27
2019-02-20T04:07:51.061Z,83.54
2019-02-20T04:10:21.496Z,83.63
2019-02-20T04:12:51.915Z,83.65
2019-02-20T04:15:22.338Z,83.77
2019-02-20T04:17:53.946Z,83.80
2019-02-20T04:20:24.365Z,84.21
2019-02-20T04:22:54.753Z,84.52
2019-02-20T04:25:25.185Z,84.56
2019-02-20T04:27:55.592Z,84.68
2019-02-20T04:30:25.986Z,84.95
2019-02-20T04:32:58.696Z,85.07
2019-02-20T04:35:29.202Z,85.09
2019-02-20T04:37:59.667Z,85.43
2019-02-20T04:40:30.085Z,85.74
2019-02-20T04:43:00.484Z,85.73
2019-02-20T04:45:30.848Z,85.93
2019-02-20T04:48:01.307Z,85.71
2019-02-20T04:50:31.707Z,85.41
2019-02-20T04:53:02.097Z,85.43
2019-02-20T04:55:32.497Z,85.31
2019-02-20T04:58:16.697Z,85.38
2019-02-20T05:00:47.139Z,85.46
2019-02-20T05:03:17.528Z,85.15
2019-02-20T05:05:47.903Z,85.24
2019-02-20T05:08:20.328Z,85.13
2019-02-20T05:10:51.816Z,85.27
2019-02-20T05:13:22.252Z,85.36
2019-02-20T05:15:52.667Z,85.45
2019-02-20T05:18:23.212Z,85.36
2019-02-20T05:20:53.612Z,85.73
2019-02-20T05:23:23.996Z,85.73
2019-02-20T05:25:54.352Z,85.75
2019-02-20T05:28:24.710Z,85.52
2019-02-20T05:30:55.125Z,85.52
2019-02-20T05:33:27.072Z,85.32
2019-02-20T05:35:57.486Z,85.17
2019-02-20T05:38:27.855Z,84.46
2019-02-20T05:40:58.245Z,83.52
2019-02-20T05:43:28.683Z,83.52
2019-02-20T05:46:00.651Z,83.22
2019-02-20T05:48:31.067Z,83.33
2019-02-20T05:51:02.008Z,83.32
2019-02-20T05:53:32.423Z,83.32
2019-02-20T05:56:02.821Z,83.36
2019-02-20T05:58:33.269Z,83.35
2019-02-20T06:01:03.732Z,83.35
2019-02-20T06:03:34.131Z,82.40
2019-02-20T06:06:04.563Z,82.74
2019-02-20T06:08:34.943Z,82.74
2019-02-20T06:11:14.423Z,82.46
2019-02-20T06:13:39.017Z,82.46
2019-02-20T06:16:09.445Z,82.17
2019-02-20T06:18:39.871Z,81.48
2019-02-20T06:21:10.302Z,81.48
2019-02-20T06:23:40.723Z,81.35
2019-02-20T06:26:11.178Z,80.93
2019-02-20T06:28:41.532Z,80.11
2019-02-20T06:31:11.955Z,79.96
2019-02-20T06:33:42.335Z,80.41
2019-02-20T06:36:12.709Z,79.81
2019-02-20T06:38:43.126Z,80.06
2019-02-20T06:41:13.580Z,79.22
2019-02-20T06:43:45.046Z,79.19
2019-02-20T06:46:15.473Z,79.39
2019-02-20T06:48:45.870Z,79.18
2019-02-20T06:51:16.298Z,78.67
2019-02-20T06:53:46.712Z,77.87
2019-02-20T06:56:17.140Z,77.30
2019-02-20T06:58:47.551Z,77.42
2019-02-20T07:01:19.592Z,77.42
2019-02-20T07:03:49.976Z,77.02
2019-02-20T07:06:44.478Z,75.16
2019-02-20T07:09:29.904Z,75.16
2019-02-20T07:12:06.054Z,73.74
2019-02-20T07:14:56.966Z,73.25
2019-02-20T07:17:45.503Z,73.90
2019-02-20T07:20:41.351Z,72.82
2019-02-20T07:23:33.136Z,71.49
2019-02-20T07:26:09.829Z,71.15
2019-02-20T07:28:51.886Z,72.17
2019-02-20T07:31:22.373Z,72.52
2019-02-20T07:33:52.806Z,72.66
2019-02-20T07:36:23.240Z,74.15
2019-02-20T07:38:53.800Z,73.45
2019-02-20T07:41:24.362Z,74.08
2019-02-20T07:44:01.752Z,74.98
2019-02-20T07:46:56.193Z,75.59
2019-02-20T07:50:55.076Z,76.91
2019-02-20T10:13:43.303Z,71.27
2019-02-20T10:38:21.049Z,72.15
2019-02-20T10:40:51.416Z,72.10
2019-02-20T10:49:33.305Z,75.03
2019-02-20T10:54:57.937Z,74.75
2019-02-20T10:57:47.042Z,73.93
2019-02-20T11:07:41.178Z,74.18
2019-02-20T11:10:25.521Z,71.99
2019-02-20T11:45:30.473Z,73.46
2019-02-20T11:54:36.974Z,73.91
2019-02-20T11:57:13.918Z,74.66
2019-02-20T12:47:52.968Z,74.43
2019-02-20T13:00:19.715Z,75.36
2019-02-20T13:06:59.424Z,74.62
2019-02-20T13:13:06.271Z,75.19
2019-02-20T13:18:39.315Z,75.57
2019-02-20T13:21:20.155Z,74.67
2019-02-20T13:23:55.455Z,75.30
2019-02-20T13:53:24.606Z,76.16
2019-02-20T14:02:04.127Z,76.35
2019-02-20T14:04:21.626Z,76.63
2019-02-20T14:06:55.755Z,76.05
2019-02-20T14:09:29.971Z,76.13
2019-02-20T14:15:26.848Z,75.71
2019-02-20T14:17:56.253Z,75.84
2019-02-20T14:20:32.155Z,76.22
2019-02-20T14:32:19.915Z,75.59
2019-02-20T14:37:56.559Z,75.89
2019-02-20T14:40:35.405Z,76.13
2019-02-20T14:49:17.247Z,76.48
2019-02-20T14:51:48.740Z,76.50
2019-02-20T14:57:42.465Z,76.61
2019-02-20T15:00:19.204Z,77.48
2019-02-20T15:02:50.475Z,76.93
2019-02-20T15:08:18.507Z,77.30
2019-02-20T15:13:48.481Z,77.40
2019-02-20T15:16:22.337Z,77.48
2019-02-20T15:19:01.413Z,77.75
2019-02-20T15:21:43.697Z,77.80
2019-02-20T15:24:17.848Z,77.82
2019-02-20T15:26:48.402Z,77.60
2019-02-20T15:42:03.081Z,78.40
2019-02-20T15:44:36.073Z,78.46
2019-02-20T15:50:18.127Z,78.51
2019-02-20T16:04:32.414Z,79.17
2019-02-20T17:19:47.503Z,83.25
2019-02-20T17:22:27.066Z,83.49
2019-02-20T17:25:08.846Z,84.06
2019-02-20T18:34:47.405Z,87.96
